sensor_id;sensor_type;location;lat;lon;timestamp;temperature;humidity
2639;DHT22;1329;51.384;7.122;2022-09-25T00:00:36;16.50;90.10
2639;DHT22;1329;51.384;7.122;2022-09-25T00:03:04;16.60;90.40
2639;DHT22;1329;51.384;7.122;2022-09-25T00:05:31;16.50;90.40
2639;DHT22;1329;51.384;7.122;2022-09-25T00:08:01;16.50;90.20
2639;DHT22;1329;51.384;7.122;2022-09-25T00:10:28;16.50;90.20
2639;DHT22;1329;51.384;7.122;2022-09-25T00:12:56;16.50;90.30
2639;DHT22;1329;51.384;7.122;2022-09-25T00:15:25;16.50;90.10
2639;DHT22;1329;51.384;7.122;2022-09-25T00:17:52;16.50;89.30
2639;DHT22;1329;51.384;7.122;2022-09-25T00:20:19;16.50;90.20
2639;DHT22;1329;51.384;7.122;2022-09-25T00:22:45;16.50;90.10
2639;DHT22;1329;51.384;7.122;2022-09-25T00:25:13;16.50;90.20
2639;DHT22;1329;51.384;7.122;2022-09-25T00:27:42;16.50;90.30
2639;DHT22;1329;51.384;7.122;2022-09-25T00:30:11;16.50;90.20
2639;DHT22;1329;51.384;7.122;2022-09-25T00:32:41;16.50;90.10
2639;DHT22;1329;51.384;7.122;2022-09-25T00:35:08;16.50;89.50
2639;DHT22;1329;51.384;7.122;2022-09-25T00:37:36;16.50;90.00
2639;DHT22;1329;51.384;7.122;2022-09-25T00:40:04;16.50;89.60
2639;DHT22;1329;51.384;7.122;2022-09-25T00:42:32;16.50;88.80
2639;DHT22;1329;51.384;7.122;2022-09-25T00:45:01;16.50;88.40
2639;DHT22;1329;51.384;7.122;2022-09-25T00:47:53;16.50;87.20
2639;DHT22;1329;51.384;7.122;2022-09-25T00:50:28;16.50;83.20
2639;DHT22;1329;51.384;7.122;2022-09-25T00:53:04;16.40;83.70
2639;DHT22;1329;51.384;7.122;2022-09-25T00:55:35;16.40;84.10
2639;DHT22;1329;51.384;7.122;2022-09-25T00:58:04;16.40;85.40
2639;DHT22;1329;51.384;7.122;2022-09-25T01:00:32;16.40;86.10
2639;DHT22;1329;51.384;7.122;2022-09-25T01:03:01;16.40;86.20
2639;DHT22;1329;51.384;7.122;2022-09-25T01:05:32;16.30;84.40
2639;DHT22;1329;51.384;7.122;2022-09-25T01:08:03;16.40;85.20
2639;DHT22;1329;51.384;7.122;2022-09-25T01:10:32;16.40;85.30
2639;DHT22;1329;51.384;7.122;2022-09-25T01:12:59;16.40;87.00
2639;DHT22;1329;51.384;7.122;2022-09-25T01:15:30;16.40;87.00
2639;DHT22;1329;51.384;7.122;2022-09-25T01:18:13;16.40;86.20
2639;DHT22;1329;51.384;7.122;2022-09-25T01:21:00;16.40;85.60
2639;DHT22;1329;51.384;7.122;2022-09-25T01:27:19;16.40;85.10
2639;DHT22;1329;51.384;7.122;2022-09-25T01:30:02;16.40;84.80
2639;DHT22;1329;51.384;7.122;2022-09-25T01:32:38;16.40;85.80
2639;DHT22;1329;51.384;7.122;2022-09-25T01:35:15;16.40;87.20
2639;DHT22;1329;51.384;7.122;2022-09-25T01:37:51;16.40;85.50
2639;DHT22;1329;51.384;7.122;2022-09-25T01:40:26;16.30;85.40
2639;DHT22;1329;51.384;7.122;2022-09-25T01:43:03;16.30;87.10
2639;DHT22;1329;51.384;7.122;2022-09-25T01:45:38;16.30;86.80
2639;DHT22;1329;51.384;7.122;2022-09-25T01:48:09;16.30;86.70
2639;DHT22;1329;51.384;7.122;2022-09-25T01:50:42;16.30;88.40
2639;DHT22;1329;51.384;7.122;2022-09-25T01:53:17;16.30;88.10
2639;DHT22;1329;51.384;7.122;2022-09-25T01:55:53;16.30;87.70
2639;DHT22;1329;51.384;7.122;2022-09-25T01:58:26;16.30;87.70
2639;DHT22;1329;51.384;7.122;2022-09-25T02:00:58;16.30;87.80
2639;DHT22;1329;51.384;7.122;2022-09-25T02:03:33;16.20;87.60
2639;DHT22;1329;51.384;7.122;2022-09-25T02:06:06;16.20;87.70
2639;DHT22;1329;51.384;7.122;2022-09-25T02:08:37;16.20;88.30
2639;DHT22;1329;51.384;7.122;2022-09-25T02:11:09;16.10;89.10
2639;DHT22;1329;51.384;7.122;2022-09-25T02:13:40;16.10;89.90
2639;DHT22;1329;51.384;7.122;2022-09-25T02:16:15;16.00;90.10
2639;DHT22;1329;51.384;7.122;2022-09-25T02:18:45;16.00;90.20
2639;DHT22;1329;51.384;7.122;2022-09-25T02:21:39;16.00;90.40
2639;DHT22;1329;51.384;7.122;2022-09-25T02:24:15;15.90;90.10
2639;DHT22;1329;51.384;7.122;2022-09-25T02:26:45;15.90;90.50
2639;DHT22;1329;51.384;7.122;2022-09-25T02:29:13;15.90;90.80
2639;DHT22;1329;51.384;7.122;2022-09-25T02:31:46;15.80;90.90
2639;DHT22;1329;51.384;7.122;2022-09-25T02:34:15;15.80;91.30
2639;DHT22;1329;51.384;7.122;2022-09-25T02:36:42;15.80;92.30
2639;DHT22;1329;51.384;7.122;2022-09-25T02:39:11;15.80;92.90
2639;DHT22;1329;51.384;7.122;2022-09-25T02:42:02;15.80;93.10
2639;DHT22;1329;51.384;7.122;2022-09-25T02:44:53;15.80;93.00
2639;DHT22;1329;51.384;7.122;2022-09-25T02:47:34;15.80;93.20
2639;DHT22;1329;51.384;7.122;2022-09-25T02:50:14;15.80;93.50
2639;DHT22;1329;51.384;7.122;2022-09-25T02:52:49;15.80;93.30
2639;DHT22;1329;51.384;7.122;2022-09-25T02:55:24;15.80;93.60
2639;DHT22;1329;51.384;7.122;2022-09-25T02:58:02;15.80;93.80
2639;DHT22;1329;51.384;7.122;2022-09-25T03:00:34;15.80;93.80
2639;DHT22;1329;51.384;7.122;2022-09-25T03:03:07;15.80;93.30
2639;DHT22;1329;51.384;7.122;2022-09-25T03:05:36;15.80;92.60
2639;DHT22;1329;51.384;7.122;2022-09-25T03:08:03;15.80;93.20
2639;DHT22;1329;51.384;7.122;2022-09-25T03:10:48;15.70;93.20
2639;DHT22;1329;51.384;7.122;2022-09-25T03:13:17;15.80;93.20
2639;DHT22;1329;51.384;7.122;2022-09-25T03:15:49;15.70;93.00
2639;DHT22;1329;51.384;7.122;2022-09-25T03:18:19;15.70;92.70
2639;DHT22;1329;51.384;7.122;2022-09-25T03:20:46;15.70;93.00
2639;DHT22;1329;51.384;7.122;2022-09-25T03:23:14;15.70;93.20
2639;DHT22;1329;51.384;7.122;2022-09-25T03:25:41;15.70;92.90
2639;DHT22;1329;51.384;7.122;2022-09-25T03:28:09;15.70;92.90
2639;DHT22;1329;51.384;7.122;2022-09-25T03:30:38;15.70;92.70
2639;DHT22;1329;51.384;7.122;2022-09-25T03:33:06;15.70;92.50
2639;DHT22;1329;51.384;7.122;2022-09-25T03:35:35;15.70;92.50
2639;DHT22;1329;51.384;7.122;2022-09-25T03:38:03;15.70;92.10
2639;DHT22;1329;51.384;7.122;2022-09-25T03:40:33;15.70;92.40
2639;DHT22;1329;51.384;7.122;2022-09-25T03:43:00;15.70;91.20
2639;DHT22;1329;51.384;7.122;2022-09-25T03:45:28;15.70;91.70
2639;DHT22;1329;51.384;7.122;2022-09-25T03:47:55;15.70;91.60
2639;DHT22;1329;51.384;7.122;2022-09-25T03:50:22;15.70;91.50
2639;DHT22;1329;51.384;7.122;2022-09-25T03:52:51;15.60;91.20
2639;DHT22;1329;51.384;7.122;2022-09-25T03:55:18;15.60;90.80
2639;DHT22;1329;51.384;7.122;2022-09-25T03:57:46;15.60;91.10
2639;DHT22;1329;51.384;7.122;2022-09-25T04:00:15;15.50;90.70
2639;DHT22;1329;51.384;7.122;2022-09-25T04:02:42;15.60;90.70
2639;DHT22;1329;51.384;7.122;2022-09-25T04:05:10;15.50;90.90
2639;DHT22;1329;51.384;7.122;2022-09-25T04:07:37;15.60;90.70
2639;DHT22;1329;51.384;7.122;2022-09-25T04:10:07;15.50;90.90
2639;DHT22;1329;51.384;7.122;2022-09-25T04:12:34;15.50;90.50
2639;DHT22;1329;51.384;7.122;2022-09-25T04:15:02;15.50;90.70
2639;DHT22;1329;51.384;7.122;2022-09-25T04:17:31;15.50;90.80
2639;DHT22;1329;51.384;7.122;2022-09-25T04:19:58;15.50;90.80
2639;DHT22;1329;51.384;7.122;2022-09-25T04:22:25;15.40;90.60
2639;DHT22;1329;51.384;7.122;2022-09-25T04:24:54;15.40;90.50
2639;DHT22;1329;51.384;7.122;2022-09-25T04:27:24;15.50;90.60
2639;DHT22;1329;51.384;7.122;2022-09-25T04:29:52;15.40;90.40
2639;DHT22;1329;51.384;7.122;2022-09-25T04:32:19;15.40;90.70
2639;DHT22;1329;51.384;7.122;2022-09-25T04:35:04;15.30;90.60
2639;DHT22;1329;51.384;7.122;2022-09-25T04:37:32;15.30;90.70
2639;DHT22;1329;51.384;7.122;2022-09-25T04:40:00;15.30;90.80
2639;DHT22;1329;51.384;7.122;2022-09-25T04:42:28;15.30;90.70
2639;DHT22;1329;51.384;7.122;2022-09-25T04:44:56;15.20;90.30
2639;DHT22;1329;51.384;7.122;2022-09-25T04:47:25;15.20;90.50
2639;DHT22;1329;51.384;7.122;2022-09-25T04:49:54;15.20;90.30
2639;DHT22;1329;51.384;7.122;2022-09-25T04:52:22;15.10;90.10
2639;DHT22;1329;51.384;7.122;2022-09-25T04:54:49;15.10;90.00
2639;DHT22;1329;51.384;7.122;2022-09-25T04:57:18;15.10;90.00
2639;DHT22;1329;51.384;7.122;2022-09-25T04:59:47;15.00;90.00
2639;DHT22;1329;51.384;7.122;2022-09-25T05:02:15;14.90;89.30
2639;DHT22;1329;51.384;7.122;2022-09-25T05:04:43;14.90;89.60
2639;DHT22;1329;51.384;7.122;2022-09-25T05:07:11;14.80;89.40
2639;DHT22;1329;51.384;7.122;2022-09-25T05:09:38;14.80;89.00
2639;DHT22;1329;51.384;7.122;2022-09-25T05:12:06;14.70;89.30
2639;DHT22;1329;51.384;7.122;2022-09-25T05:14:33;14.70;88.90
2639;DHT22;1329;51.384;7.122;2022-09-25T05:17:01;14.70;89.00
2639;DHT22;1329;51.384;7.122;2022-09-25T05:19:29;14.60;88.20
2639;DHT22;1329;51.384;7.122;2022-09-25T05:21:56;14.60;89.20
2639;DHT22;1329;51.384;7.122;2022-09-25T05:24:23;14.50;89.10
2639;DHT22;1329;51.384;7.122;2022-09-25T05:26:51;14.50;88.90
2639;DHT22;1329;51.384;7.122;2022-09-25T05:29:18;14.50;89.00
2639;DHT22;1329;51.384;7.122;2022-09-25T05:31:46;14.40;89.00
2639;DHT22;1329;51.384;7.122;2022-09-25T05:34:15;14.40;88.00
2639;DHT22;1329;51.384;7.122;2022-09-25T05:36:43;14.40;87.80
2639;DHT22;1329;51.384;7.122;2022-09-25T05:39:10;14.30;88.70
2639;DHT22;1329;51.384;7.122;2022-09-25T05:41:37;14.30;88.80
2639;DHT22;1329;51.384;7.122;2022-09-25T05:44:05;14.30;89.30
2639;DHT22;1329;51.384;7.122;2022-09-25T05:46:34;14.20;89.00
2639;DHT22;1329;51.384;7.122;2022-09-25T05:49:01;14.20;88.90
2639;DHT22;1329;51.384;7.122;2022-09-25T05:51:31;14.10;89.00
2639;DHT22;1329;51.384;7.122;2022-09-25T05:53:58;14.10;88.30
2639;DHT22;1329;51.384;7.122;2022-09-25T05:56:26;14.10;89.80
2639;DHT22;1329;51.384;7.122;2022-09-25T05:58:53;14.10;90.20
2639;DHT22;1329;51.384;7.122;2022-09-25T06:01:23;14.00;90.20
2639;DHT22;1329;51.384;7.122;2022-09-25T06:03:51;14.10;90.20
2639;DHT22;1329;51.384;7.122;2022-09-25T06:06:18;14.00;90.10
2639;DHT22;1329;51.384;7.122;2022-09-25T06:08:47;14.00;90.10
2639;DHT22;1329;51.384;7.122;2022-09-25T06:11:14;14.00;89.60
2639;DHT22;1329;51.384;7.122;2022-09-25T06:13:42;14.00;90.40
2639;DHT22;1329;51.384;7.122;2022-09-25T06:16:23;14.00;90.50
2639;DHT22;1329;51.384;7.122;2022-09-25T06:18:52;14.00;90.30
2639;DHT22;1329;51.384;7.122;2022-09-25T06:21:19;14.00;91.20
2639;DHT22;1329;51.384;7.122;2022-09-25T06:23:48;14.00;91.40
2639;DHT22;1329;51.384;7.122;2022-09-25T06:26:15;14.00;91.30
2639;DHT22;1329;51.384;7.122;2022-09-25T06:28:43;14.00;91.60
2639;DHT22;1329;51.384;7.122;2022-09-25T06:31:10;14.00;91.80
2639;DHT22;1329;51.384;7.122;2022-09-25T06:33:37;13.90;91.80
2639;DHT22;1329;51.384;7.122;2022-09-25T06:36:05;14.00;91.90
2639;DHT22;1329;51.384;7.122;2022-09-25T06:38:32;14.00;92.00
2639;DHT22;1329;51.384;7.122;2022-09-25T06:41:01;14.00;92.20
2639;DHT22;1329;51.384;7.122;2022-09-25T06:43:28;14.00;92.00
2639;DHT22;1329;51.384;7.122;2022-09-25T06:45:58;14.00;92.20
2639;DHT22;1329;51.384;7.122;2022-09-25T06:48:28;14.00;92.10
2639;DHT22;1329;51.384;7.122;2022-09-25T06:50:56;14.00;92.50
2639;DHT22;1329;51.384;7.122;2022-09-25T06:53:25;14.00;92.60
2639;DHT22;1329;51.384;7.122;2022-09-25T06:55:56;14.00;92.80
2639;DHT22;1329;51.384;7.122;2022-09-25T06:58:26;14.10;92.80
2639;DHT22;1329;51.384;7.122;2022-09-25T07:00:55;14.00;92.90
2639;DHT22;1329;51.384;7.122;2022-09-25T07:03:23;14.00;93.00
2639;DHT22;1329;51.384;7.122;2022-09-25T07:06:09;14.10;93.20
2639;DHT22;1329;51.384;7.122;2022-09-25T07:08:38;14.10;93.20
2639;DHT22;1329;51.384;7.122;2022-09-25T07:11:07;14.10;93.30
2639;DHT22;1329;51.384;7.122;2022-09-25T07:13:37;14.10;93.30
2639;DHT22;1329;51.384;7.122;2022-09-25T07:16:07;14.10;93.70
2639;DHT22;1329;51.384;7.122;2022-09-25T07:18:37;14.10;93.40
2639;DHT22;1329;51.384;7.122;2022-09-25T07:21:06;14.20;93.60
2639;DHT22;1329;51.384;7.122;2022-09-25T07:23:36;14.20;93.60
2639;DHT22;1329;51.384;7.122;2022-09-25T07:26:05;14.20;93.60
2639;DHT22;1329;51.384;7.122;2022-09-25T07:28:37;14.20;93.40
2639;DHT22;1329;51.384;7.122;2022-09-25T07:31:13;14.30;93.40
2639;DHT22;1329;51.384;7.122;2022-09-25T07:33:42;14.30;92.50
2639;DHT22;1329;51.384;7.122;2022-09-25T07:36:09;14.30;93.70
2639;DHT22;1329;51.384;7.122;2022-09-25T07:38:37;14.30;93.60
2639;DHT22;1329;51.384;7.122;2022-09-25T07:41:05;14.40;93.40
2639;DHT22;1329;51.384;7.122;2022-09-25T07:43:33;14.40;93.20
2639;DHT22;1329;51.384;7.122;2022-09-25T07:46:04;14.50;93.80
2639;DHT22;1329;51.384;7.122;2022-09-25T07:48:32;14.50;93.60
2639;DHT22;1329;51.384;7.122;2022-09-25T07:50:59;14.60;94.30
2639;DHT22;1329;51.384;7.122;2022-09-25T07:53:27;14.70;95.00
2639;DHT22;1329;51.384;7.122;2022-09-25T07:55:58;14.70;95.10
2639;DHT22;1329;51.384;7.122;2022-09-25T07:58:26;14.80;94.20
2639;DHT22;1329;51.384;7.122;2022-09-25T08:01:00;14.90;94.90
2639;DHT22;1329;51.384;7.122;2022-09-25T08:03:31;15.00;93.10
2639;DHT22;1329;51.384;7.122;2022-09-25T08:05:59;15.00;93.60
2639;DHT22;1329;51.384;7.122;2022-09-25T08:08:28;15.10;93.50
2639;DHT22;1329;51.384;7.122;2022-09-25T08:10:58;15.20;93.50
2639;DHT22;1329;51.384;7.122;2022-09-25T08:13:27;15.20;91.60
2639;DHT22;1329;51.384;7.122;2022-09-25T08:15:55;15.20;92.40
2639;DHT22;1329;51.384;7.122;2022-09-25T08:18:24;15.30;92.50
2639;DHT22;1329;51.384;7.122;2022-09-25T08:20:51;15.30;90.90
2639;DHT22;1329;51.384;7.122;2022-09-25T08:23:18;15.30;91.70
2639;DHT22;1329;51.384;7.122;2022-09-25T08:25:46;15.40;91.50
2639;DHT22;1329;51.384;7.122;2022-09-25T08:28:15;15.40;90.60
2639;DHT22;1329;51.384;7.122;2022-09-25T08:30:44;15.40;90.50
2639;DHT22;1329;51.384;7.122;2022-09-25T08:33:12;15.50;90.10
2639;DHT22;1329;51.384;7.122;2022-09-25T08:35:41;15.50;89.30
2639;DHT22;1329;51.384;7.122;2022-09-25T08:38:09;15.50;85.40
2639;DHT22;1329;51.384;7.122;2022-09-25T08:40:40;15.60;86.70
2639;DHT22;1329;51.384;7.122;2022-09-25T08:43:17;15.60;85.70
2639;DHT22;1329;51.384;7.122;2022-09-25T08:45:46;15.60;82.20
2639;DHT22;1329;51.384;7.122;2022-09-25T08:48:40;15.60;85.30
2639;DHT22;1329;51.384;7.122;2022-09-25T08:51:31;15.70;82.60
2639;DHT22;1329;51.384;7.122;2022-09-25T08:53:59;15.80;85.30
2639;DHT22;1329;51.384;7.122;2022-09-25T08:56:29;15.80;86.00
2639;DHT22;1329;51.384;7.122;2022-09-25T08:59:03;15.90;83.00
2639;DHT22;1329;51.384;7.122;2022-09-25T09:01:42;15.90;76.70
2639;DHT22;1329;51.384;7.122;2022-09-25T09:04:17;15.90;74.00
2639;DHT22;1329;51.384;7.122;2022-09-25T09:06:50;15.90;76.00
2639;DHT22;1329;51.384;7.122;2022-09-25T09:09:26;15.80;74.80
2639;DHT22;1329;51.384;7.122;2022-09-25T09:12:00;15.90;73.10
2639;DHT22;1329;51.384;7.122;2022-09-25T09:14:31;15.90;73.90
2639;DHT22;1329;51.384;7.122;2022-09-25T09:17:13;15.90;75.50
2639;DHT22;1329;51.384;7.122;2022-09-25T09:19:46;16.00;72.20
2639;DHT22;1329;51.384;7.122;2022-09-25T09:22:19;16.00;71.50
2639;DHT22;1329;51.384;7.122;2022-09-25T09:24:55;16.00;70.00
2639;DHT22;1329;51.384;7.122;2022-09-25T09:27:47;16.10;66.60
2639;DHT22;1329;51.384;7.122;2022-09-25T09:30:30;16.10;65.80
2639;DHT22;1329;51.384;7.122;2022-09-25T09:33:21;16.10;65.40
2639;DHT22;1329;51.384;7.122;2022-09-25T09:36:02;16.00;60.90
2639;DHT22;1329;51.384;7.122;2022-09-25T09:38:52;16.10;63.00
2639;DHT22;1329;51.384;7.122;2022-09-25T09:41:39;16.10;61.50
2639;DHT22;1329;51.384;7.122;2022-09-25T09:44:25;16.20;60.40
2639;DHT22;1329;51.384;7.122;2022-09-25T09:47:05;16.20;60.40
2639;DHT22;1329;51.384;7.122;2022-09-25T09:49:44;16.30;64.00
2639;DHT22;1329;51.384;7.122;2022-09-25T09:52:18;16.40;60.60
2639;DHT22;1329;51.384;7.122;2022-09-25T09:54:51;16.40;62.00
2639;DHT22;1329;51.384;7.122;2022-09-25T09:57:24;16.50;56.80
2639;DHT22;1329;51.384;7.122;2022-09-25T09:59:57;16.60;54.50
2639;DHT22;1329;51.384;7.122;2022-09-25T10:02:34;16.60;51.20
2639;DHT22;1329;51.384;7.122;2022-09-25T10:05:08;16.60;46.40
2639;DHT22;1329;51.384;7.122;2022-09-25T10:07:42;16.70;51.70
2639;DHT22;1329;51.384;7.122;2022-09-25T10:10:14;16.70;51.90
2639;DHT22;1329;51.384;7.122;2022-09-25T10:12:45;16.80;46.10
2639;DHT22;1329;51.384;7.122;2022-09-25T10:15:24;16.80;48.80
2639;DHT22;1329;51.384;7.122;2022-09-25T10:17:54;16.90;48.10
2639;DHT22;1329;51.384;7.122;2022-09-25T10:20:23;16.90;52.90
2639;DHT22;1329;51.384;7.122;2022-09-25T10:22:56;17.00;49.90
2639;DHT22;1329;51.384;7.122;2022-09-25T10:25:38;17.10;46.30
2639;DHT22;1329;51.384;7.122;2022-09-25T10:28:27;17.10;31.30
2639;DHT22;1329;51.384;7.122;2022-09-25T10:30:57;17.10;29.50
2639;DHT22;1329;51.384;7.122;2022-09-25T10:33:28;17.10;40.00
2639;DHT22;1329;51.384;7.122;2022-09-25T10:35:57;17.10;35.40
2639;DHT22;1329;51.384;7.122;2022-09-25T10:38:36;17.00;35.80
2639;DHT22;1329;51.384;7.122;2022-09-25T10:41:09;17.10;30.30
2639;DHT22;1329;51.384;7.122;2022-09-25T10:43:52;17.00;35.90
2639;DHT22;1329;51.384;7.122;2022-09-25T10:46:30;17.00;28.80
2639;DHT22;1329;51.384;7.122;2022-09-25T10:49:16;17.10;32.30
2639;DHT22;1329;51.384;7.122;2022-09-25T10:52:05;17.10;35.30
2639;DHT22;1329;51.384;7.122;2022-09-25T10:54:34;17.10;33.20
2639;DHT22;1329;51.384;7.122;2022-09-25T10:57:14;17.10;33.50
2639;DHT22;1329;51.384;7.122;2022-09-25T10:59:46;17.10;24.60
2639;DHT22;1329;51.384;7.122;2022-09-25T11:02:26;17.10;24.80
2639;DHT22;1329;51.384;7.122;2022-09-25T11:04:56;17.10;24.10
2639;DHT22;1329;51.384;7.122;2022-09-25T11:07:24;17.10;33.20
2639;DHT22;1329;51.384;7.122;2022-09-25T11:09:53;17.10;33.20
2639;DHT22;1329;51.384;7.122;2022-09-25T11:12:24;17.20;31.00
2639;DHT22;1329;51.384;7.122;2022-09-25T11:14:56;17.20;25.10
2639;DHT22;1329;51.384;7.122;2022-09-25T11:17:31;17.30;27.30
2639;DHT22;1329;51.384;7.122;2022-09-25T11:20:19;17.40;26.20
2639;DHT22;1329;51.384;7.122;2022-09-25T11:23:03;17.40;25.20
2639;DHT22;1329;51.384;7.122;2022-09-25T11:25:43;17.50;21.60
2639;DHT22;1329;51.384;7.122;2022-09-25T11:28:19;17.50;20.20
2639;DHT22;1329;51.384;7.122;2022-09-25T11:31:01;17.50;17.40
2639;DHT22;1329;51.384;7.122;2022-09-25T11:33:39;17.40;20.20
2639;DHT22;1329;51.384;7.122;2022-09-25T11:36:14;17.50;18.20
2639;DHT22;1329;51.384;7.122;2022-09-25T11:38:46;17.40;19.20
2639;DHT22;1329;51.384;7.122;2022-09-25T11:41:36;17.40;22.90
2639;DHT22;1329;51.384;7.122;2022-09-25T11:44:22;17.40;16.90
2639;DHT22;1329;51.384;7.122;2022-09-25T11:47:02;17.50;10.60
2639;DHT22;1329;51.384;7.122;2022-09-25T11:49:34;17.50;12.30
2639;DHT22;1329;51.384;7.122;2022-09-25T11:52:29;17.50;15.20
2639;DHT22;1329;51.384;7.122;2022-09-25T12:07:24;17.40;11.40
2639;DHT22;1329;51.384;7.122;2022-09-25T12:10:11;17.40;12.10
2639;DHT22;1329;51.384;7.122;2022-09-25T12:12:53;17.40;10.20
2639;DHT22;1329;51.384;7.122;2022-09-25T12:15:35;17.50;10.90
2639;DHT22;1329;51.384;7.122;2022-09-25T12:18:15;17.50;12.00
2639;DHT22;1329;51.384;7.122;2022-09-25T12:20:50;17.60;12.80
2639;DHT22;1329;51.384;7.122;2022-09-25T12:23:26;17.60;14.70
2639;DHT22;1329;51.384;7.122;2022-09-25T12:26:22;17.70;11.50
2639;DHT22;1329;51.384;7.122;2022-09-25T12:29:02;17.70;5.20
2639;DHT22;1329;51.384;7.122;2022-09-25T12:31:46;17.70;7.60
2639;DHT22;1329;51.384;7.122;2022-09-25T12:34:32;17.70;8.70
2639;DHT22;1329;51.384;7.122;2022-09-25T12:37:15;17.80;3.60
2639;DHT22;1329;51.384;7.122;2022-09-25T12:39:50;17.80;3.70
2639;DHT22;1329;51.384;7.122;2022-09-25T12:42:23;17.80;5.20
2639;DHT22;1329;51.384;7.122;2022-09-25T12:45:09;17.90;6.30
2639;DHT22;1329;51.384;7.122;2022-09-25T12:47:43;18.00;6.10
2639;DHT22;1329;51.384;7.122;2022-09-25T12:50:16;18.00;8.60
2639;DHT22;1329;51.384;7.122;2022-09-25T12:52:48;18.10;6.40
2639;DHT22;1329;51.384;7.122;2022-09-25T12:55:22;18.20;7.50
2639;DHT22;1329;51.384;7.122;2022-09-25T12:57:58;18.20;7.60
2639;DHT22;1329;51.384;7.122;2022-09-25T13:00:31;18.30;6.30
2639;DHT22;1329;51.384;7.122;2022-09-25T13:03:03;18.40;7.90
2639;DHT22;1329;51.384;7.122;2022-09-25T13:05:39;18.40;5.40
2639;DHT22;1329;51.384;7.122;2022-09-25T13:08:15;18.40;1.90
2639;DHT22;1329;51.384;7.122;2022-09-25T13:10:51;18.40;3.30
2639;DHT22;1329;51.384;7.122;2022-09-25T13:13:23;18.30;1.00
2639;DHT22;1329;51.384;7.122;2022-09-25T13:15:55;18.30;2.80
2639;DHT22;1329;51.384;7.122;2022-09-25T13:18:26;18.20;1.70
2639;DHT22;1329;51.384;7.122;2022-09-25T13:20:56;18.20;4.30
2639;DHT22;1329;51.384;7.122;2022-09-25T13:23:32;18.10;1.60
2639;DHT22;1329;51.384;7.122;2022-09-25T13:26:08;18.10;1.60
2639;DHT22;1329;51.384;7.122;2022-09-25T13:28:39;18.00;1.40
2639;DHT22;1329;51.384;7.122;2022-09-25T13:31:09;18.00;4.60
2639;DHT22;1329;51.384;7.122;2022-09-25T13:33:44;18.10;1.80
2639;DHT22;1329;51.384;7.122;2022-09-25T13:36:29;18.10;1.00
2639;DHT22;1329;51.384;7.122;2022-09-25T13:39:00;18.20;1.00
2639;DHT22;1329;51.384;7.122;2022-09-25T13:41:52;18.10;1.00
2639;DHT22;1329;51.384;7.122;2022-09-25T13:44:58;18.00;1.00
2639;DHT22;1329;51.384;7.122;2022-09-25T13:47:56;18.00;1.00
2639;DHT22;1329;51.384;7.122;2022-09-25T13:50:33;18.00;1.00
2639;DHT22;1329;51.384;7.122;2022-09-25T13:53:15;18.10;1.00
2639;DHT22;1329;51.384;7.122;2022-09-25T14:02:36;18.50;1.00
2639;DHT22;1329;51.384;7.122;2022-09-25T14:05:13;18.70;1.00
2639;DHT22;1329;51.384;7.122;2022-09-25T14:07:42;18.90;1.30
2639;DHT22;1329;51.384;7.122;2022-09-25T14:10:12;19.10;5.40
2639;DHT22;1329;51.384;7.122;2022-09-25T14:12:42;19.30;1.00
2639;DHT22;1329;51.384;7.122;2022-09-25T14:15:19;19.40;1.00
2639;DHT22;1329;51.384;7.122;2022-09-25T14:17:50;19.60;1.00
2639;DHT22;1329;51.384;7.122;2022-09-25T14:20:29;19.70;1.00
2639;DHT22;1329;51.384;7.122;2022-09-25T14:23:00;19.80;1.00
2639;DHT22;1329;51.384;7.122;2022-09-25T14:25:32;19.80;1.00
2639;DHT22;1329;51.384;7.122;2022-09-25T14:28:03;19.90;1.00
2639;DHT22;1329;51.384;7.122;2022-09-25T14:30:49;20.00;1.00
2639;DHT22;1329;51.384;7.122;2022-09-25T14:36:39;20.00;1.00
2639;DHT22;1329;51.384;7.122;2022-09-25T14:39:28;20.10;1.00
2639;DHT22;1329;51.384;7.122;2022-09-25T14:42:24;20.20;1.00
2639;DHT22;1329;51.384;7.122;2022-09-25T14:47:59;20.40;1.00
2639;DHT22;1329;51.384;7.122;2022-09-25T14:50:32;20.50;1.00
2639;DHT22;1329;51.384;7.122;2022-09-25T14:53:04;20.60;1.00
2639;DHT22;1329;51.384;7.122;2022-09-25T14:55:35;20.60;1.00
2639;DHT22;1329;51.384;7.122;2022-09-25T14:58:13;20.70;1.00
2639;DHT22;1329;51.384;7.122;2022-09-25T15:00:44;20.70;1.00
2639;DHT22;1329;51.384;7.122;2022-09-25T15:03:13;20.70;1.00
2639;DHT22;1329;51.384;7.122;2022-09-25T15:05:45;20.70;1.00
2639;DHT22;1329;51.384;7.122;2022-09-25T15:08:19;20.70;1.00
2639;DHT22;1329;51.384;7.122;2022-09-25T15:10:59;20.60;1.00
2639;DHT22;1329;51.384;7.122;2022-09-25T15:13:28;20.60;1.00
2639;DHT22;1329;51.384;7.122;2022-09-25T15:15:59;20.40;1.00
2639;DHT22;1329;51.384;7.122;2022-09-25T15:18:49;20.40;1.00
2639;DHT22;1329;51.384;7.122;2022-09-25T15:21:22;20.30;1.00
2639;DHT22;1329;51.384;7.122;2022-09-25T15:23:53;20.30;1.00
2639;DHT22;1329;51.384;7.122;2022-09-25T15:26:22;20.20;1.00
2639;DHT22;1329;51.384;7.122;2022-09-25T15:28:54;20.20;1.00
2639;DHT22;1329;51.384;7.122;2022-09-25T15:31:23;20.20;1.00
2639;DHT22;1329;51.384;7.122;2022-09-25T15:34:02;20.20;1.00
2639;DHT22;1329;51.384;7.122;2022-09-25T15:36:36;20.10;1.00
2639;DHT22;1329;51.384;7.122;2022-09-25T15:39:12;20.10;1.00
2639;DHT22;1329;51.384;7.122;2022-09-25T15:41:41;20.10;1.00
2639;DHT22;1329;51.384;7.122;2022-09-25T15:44:19;20.10;1.00
2639;DHT22;1329;51.384;7.122;2022-09-25T15:46:49;20.10;1.00
2639;DHT22;1329;51.384;7.122;2022-09-25T15:49:20;20.10;1.00
2639;DHT22;1329;51.384;7.122;2022-09-25T15:51:54;20.10;1.00
2639;DHT22;1329;51.384;7.122;2022-09-25T15:54:37;20.10;1.00
2639;DHT22;1329;51.384;7.122;2022-09-25T15:57:08;20.20;1.00
2639;DHT22;1329;51.384;7.122;2022-09-25T15:59:42;20.20;1.00
2639;DHT22;1329;51.384;7.122;2022-09-25T16:02:26;20.20;1.00
2639;DHT22;1329;51.384;7.122;2022-09-25T16:05:13;20.20;1.00
2639;DHT22;1329;51.384;7.122;2022-09-25T16:07:46;20.20;1.00
2639;DHT22;1329;51.384;7.122;2022-09-25T16:10:31;20.20;1.00
2639;DHT22;1329;51.384;7.122;2022-09-25T16:12:59;20.20;1.00
2639;DHT22;1329;51.384;7.122;2022-09-25T16:15:43;20.20;1.00
2639;DHT22;1329;51.384;7.122;2022-09-25T16:18:27;20.20;1.00
2639;DHT22;1329;51.384;7.122;2022-09-25T16:21:11;20.10;1.00
2639;DHT22;1329;51.384;7.122;2022-09-25T16:23:51;20.10;1.00
2639;DHT22;1329;51.384;7.122;2022-09-25T16:26:21;20.10;1.00
2639;DHT22;1329;51.384;7.122;2022-09-25T16:29:00;20.10;1.00
2639;DHT22;1329;51.384;7.122;2022-09-25T16:31:32;20.00;1.00
2639;DHT22;1329;51.384;7.122;2022-09-25T16:34:01;19.90;1.00
2639;DHT22;1329;51.384;7.122;2022-09-25T16:36:38;19.70;1.00
2639;DHT22;1329;51.384;7.122;2022-09-25T16:39:28;19.60;1.00
2639;DHT22;1329;51.384;7.122;2022-09-25T16:41:57;19.40;1.00
2639;DHT22;1329;51.384;7.122;2022-09-25T16:44:37;19.20;1.00
2639;DHT22;1329;51.384;7.122;2022-09-25T16:47:15;19.10;1.00
2639;DHT22;1329;51.384;7.122;2022-09-25T16:49:45;18.90;1.00
2639;DHT22;1329;51.384;7.122;2022-09-25T16:52:17;18.70;1.00
2639;DHT22;1329;51.384;7.122;2022-09-25T16:54:48;18.60;1.00
2639;DHT22;1329;51.384;7.122;2022-09-25T16:57:20;18.40;1.00
2639;DHT22;1329;51.384;7.122;2022-09-25T16:59:47;18.30;1.00
2639;DHT22;1329;51.384;7.122;2022-09-25T17:02:35;18.20;1.00
2639;DHT22;1329;51.384;7.122;2022-09-25T17:05:10;18.10;1.00
2639;DHT22;1329;51.384;7.122;2022-09-25T17:07:43;17.90;1.00
2639;DHT22;1329;51.384;7.122;2022-09-25T17:10:21;17.80;1.00
2639;DHT22;1329;51.384;7.122;2022-09-25T17:12:51;17.70;1.00
2639;DHT22;1329;51.384;7.122;2022-09-25T17:15:22;17.70;1.00